sensor_id;sensor_type;location;lat;lon;timestamp;temperature;humidity
20442;DHT22;10380;52.102;20.614;2023-07-09T00:01:45;19.80;99.90
20442;DHT22;10380;52.102;20.614;2023-07-09T00:04:12;19.80;99.90
20442;DHT22;10380;52.102;20.614;2023-07-09T00:06:40;19.70;99.90
20442;DHT22;10380;52.102;20.614;2023-07-09T00:09:16;19.70;99.90
20442;DHT22;10380;52.102;20.614;2023-07-09T00:11:44;19.60;99.90
20442;DHT22;10380;52.102;20.614;2023-07-09T00:14:15;19.60;99.90
20442;DHT22;10380;52.102;20.614;2023-07-09T00:16:44;19.50;99.90
20442;DHT22;10380;52.102;20.614;2023-07-09T00:19:18;19.50;99.90
20442;DHT22;10380;52.102;20.614;2023-07-09T00:21:47;19.50;99.90
20442;DHT22;10380;52.102;20.614;2023-07-09T00:24:14;19.40;99.90
20442;DHT22;10380;52.102;20.614;2023-07-09T00:26:41;19.30;99.90
20442;DHT22;10380;52.102;20.614;2023-07-09T00:29:11;19.30;99.90
20442;DHT22;10380;52.102;20.614;2023-07-09T00:31:39;19.20;99.90
20442;DHT22;10380;52.102;20.614;2023-07-09T00:34:13;19.20;99.90
20442;DHT22;10380;52.102;20.614;2023-07-09T00:36:41;19.10;99.90
20442;DHT22;10380;52.102;20.614;2023-07-09T00:39:22;19.10;99.90
20442;DHT22;10380;52.102;20.614;2023-07-09T00:41:50;19.10;99.90
20442;DHT22;10380;52.102;20.614;2023-07-09T00:49:29;19.00;99.90
20442;DHT22;10380;52.102;20.614;2023-07-09T00:52:02;19.00;99.90
20442;DHT22;10380;52.102;20.614;2023-07-09T00:54:34;18.90;99.90
20442;DHT22;10380;52.102;20.614;2023-07-09T00:57:17;18.90;99.90
20442;DHT22;10380;52.102;20.614;2023-07-09T00:59:49;18.90;99.90
20442;DHT22;10380;52.102;20.614;2023-07-09T01:02:17;18.80;99.90
20442;DHT22;10380;52.102;20.614;2023-07-09T01:04:51;18.80;99.90
20442;DHT22;10380;52.102;20.614;2023-07-09T01:07:19;18.70;99.90
20442;DHT22;10380;52.102;20.614;2023-07-09T01:09:48;18.70;99.90
20442;DHT22;10380;52.102;20.614;2023-07-09T01:12:19;18.70;99.90
20442;DHT22;10380;52.102;20.614;2023-07-09T01:14:48;18.70;99.90
20442;DHT22;10380;52.102;20.614;2023-07-09T01:17:19;18.60;99.90
20442;DHT22;10380;52.102;20.614;2023-07-09T01:19:50;18.60;99.90
20442;DHT22;10380;52.102;20.614;2023-07-09T01:22:19;18.60;99.90
20442;DHT22;10380;52.102;20.614;2023-07-09T01:24:55;18.50;99.90
20442;DHT22;10380;52.102;20.614;2023-07-09T01:27:31;18.50;99.90
20442;DHT22;10380;52.102;20.614;2023-07-09T01:30:06;18.50;99.90
20442;DHT22;10380;52.102;20.614;2023-07-09T01:32:34;18.50;99.90
20442;DHT22;10380;52.102;20.614;2023-07-09T01:35:03;18.50;99.90
20442;DHT22;10380;52.102;20.614;2023-07-09T01:37:36;18.50;99.90
20442;DHT22;10380;52.102;20.614;2023-07-09T01:40:05;18.50;99.90
20442;DHT22;10380;52.102;20.614;2023-07-09T01:42:51;18.40;99.90
20442;DHT22;10380;52.102;20.614;2023-07-09T01:45:18;18.40;99.90
20442;DHT22;10380;52.102;20.614;2023-07-09T01:47:47;18.40;99.90
20442;DHT22;10380;52.102;20.614;2023-07-09T01:50:14;18.30;99.90
20442;DHT22;10380;52.102;20.614;2023-07-09T01:52:44;18.30;99.90
20442;DHT22;10380;52.102;20.614;2023-07-09T01:55:13;18.20;99.90
20442;DHT22;10380;52.102;20.614;2023-07-09T01:57:43;18.20;99.90
20442;DHT22;10380;52.102;20.614;2023-07-09T02:00:14;18.20;99.90
20442;DHT22;10380;52.102;20.614;2023-07-09T02:02:43;18.10;99.90
20442;DHT22;10380;52.102;20.614;2023-07-09T02:05:12;18.10;99.90
20442;DHT22;10380;52.102;20.614;2023-07-09T02:07:40;18.10;99.90
20442;DHT22;10380;52.102;20.614;2023-07-09T02:10:08;18.10;99.90
20442;DHT22;10380;52.102;20.614;2023-07-09T02:12:35;18.10;99.90
20442;DHT22;10380;52.102;20.614;2023-07-09T02:15:02;18.10;99.90
20442;DHT22;10380;52.102;20.614;2023-07-09T02:17:29;18.00;99.90
20442;DHT22;10380;52.102;20.614;2023-07-09T02:19:56;18.00;99.90
20442;DHT22;10380;52.102;20.614;2023-07-09T02:22:23;18.00;99.90
20442;DHT22;10380;52.102;20.614;2023-07-09T02:24:50;18.00;99.90
20442;DHT22;10380;52.102;20.614;2023-07-09T02:27:20;18.00;99.90
20442;DHT22;10380;52.102;20.614;2023-07-09T02:29:48;17.90;99.90
20442;DHT22;10380;52.102;20.614;2023-07-09T02:32:21;17.90;99.90
20442;DHT22;10380;52.102;20.614;2023-07-09T02:34:49;17.80;99.90
20442;DHT22;10380;52.102;20.614;2023-07-09T02:37:24;17.80;99.90
20442;DHT22;10380;52.102;20.614;2023-07-09T02:39:52;17.80;99.90
20442;DHT22;10380;52.102;20.614;2023-07-09T02:42:20;17.70;99.90
20442;DHT22;10380;52.102;20.614;2023-07-09T02:44:47;17.80;99.90
20442;DHT22;10380;52.102;20.614;2023-07-09T02:47:15;17.70;99.90
20442;DHT22;10380;52.102;20.614;2023-07-09T02:49:42;17.70;99.90
20442;DHT22;10380;52.102;20.614;2023-07-09T02:52:09;17.70;99.90
20442;DHT22;10380;52.102;20.614;2023-07-09T02:54:36;17.70;99.90
20442;DHT22;10380;52.102;20.614;2023-07-09T02:57:04;17.70;99.90
20442;DHT22;10380;52.102;20.614;2023-07-09T02:59:30;17.70;99.90
20442;DHT22;10380;52.102;20.614;2023-07-09T03:01:59;17.70;99.90
20442;DHT22;10380;52.102;20.614;2023-07-09T03:04:26;17.70;99.90
20442;DHT22;10380;52.102;20.614;2023-07-09T03:06:53;17.70;99.90
20442;DHT22;10380;52.102;20.614;2023-07-09T03:09:20;17.70;99.90
20442;DHT22;10380;52.102;20.614;2023-07-09T03:11:47;17.60;99.90
20442;DHT22;10380;52.102;20.614;2023-07-09T03:14:16;17.70;99.90
20442;DHT22;10380;52.102;20.614;2023-07-09T03:16:43;17.70;99.90
20442;DHT22;10380;52.102;20.614;2023-07-09T03:19:11;17.70;99.90
20442;DHT22;10380;52.102;20.614;2023-07-09T03:21:38;17.70;99.90
20442;DHT22;10380;52.102;20.614;2023-07-09T03:24:05;17.70;99.90
20442;DHT22;10380;52.102;20.614;2023-07-09T03:26:32;17.80;99.90
20442;DHT22;10380;52.102;20.614;2023-07-09T03:28:59;17.70;99.90
20442;DHT22;10380;52.102;20.614;2023-07-09T03:31:26;17.70;99.90
20442;DHT22;10380;52.102;20.614;2023-07-09T03:33:53;17.60;99.90
20442;DHT22;10380;52.102;20.614;2023-07-09T03:36:21;17.60;99.90
20442;DHT22;10380;52.102;20.614;2023-07-09T03:38:48;17.50;99.90
20442;DHT22;10380;52.102;20.614;2023-07-09T03:41:15;17.50;99.90
20442;DHT22;10380;52.102;20.614;2023-07-09T03:43:43;17.50;99.90
20442;DHT22;10380;52.102;20.614;2023-07-09T03:46:10;17.50;99.90
20442;DHT22;10380;52.102;20.614;2023-07-09T03:48:37;17.50;99.90
20442;DHT22;10380;52.102;20.614;2023-07-09T03:51:05;17.50;99.90
20442;DHT22;10380;52.102;20.614;2023-07-09T03:53:31;17.60;99.90
20442;DHT22;10380;52.102;20.614;2023-07-09T03:55:58;17.50;99.90
20442;DHT22;10380;52.102;20.614;2023-07-09T03:58:27;17.50;99.90
20442;DHT22;10380;52.102;20.614;2023-07-09T04:00:54;17.60;99.90
20442;DHT22;10380;52.102;20.614;2023-07-09T04:03:24;17.60;99.90
20442;DHT22;10380;52.102;20.614;2023-07-09T04:05:51;17.60;99.90
20442;DHT22;10380;52.102;20.614;2023-07-09T04:08:18;17.60;99.90
20442;DHT22;10380;52.102;20.614;2023-07-09T04:10:45;17.70;99.90
20442;DHT22;10380;52.102;20.614;2023-07-09T04:13:12;17.70;99.90
20442;DHT22;10380;52.102;20.614;2023-07-09T04:15:39;17.80;99.90
20442;DHT22;10380;52.102;20.614;2023-07-09T04:18:07;17.80;99.90
20442;DHT22;10380;52.102;20.614;2023-07-09T04:20:33;17.80;99.90
20442;DHT22;10380;52.102;20.614;2023-07-09T04:23:02;17.80;99.90
20442;DHT22;10380;52.102;20.614;2023-07-09T04:25:29;17.90;99.90
20442;DHT22;10380;52.102;20.614;2023-07-09T04:27:56;17.90;99.90
20442;DHT22;10380;52.102;20.614;2023-07-09T04:30:23;17.90;99.90
20442;DHT22;10380;52.102;20.614;2023-07-09T04:32:50;18.00;99.90
20442;DHT22;10380;52.102;20.614;2023-07-09T04:35:18;18.00;99.90
20442;DHT22;10380;52.102;20.614;2023-07-09T04:37:45;18.10;99.90
20442;DHT22;10380;52.102;20.614;2023-07-09T04:40:12;18.10;99.90
20442;DHT22;10380;52.102;20.614;2023-07-09T04:42:40;18.20;99.90
20442;DHT22;10380;52.102;20.614;2023-07-09T04:45:10;18.20;99.90
20442;DHT22;10380;52.102;20.614;2023-07-09T04:47:38;18.30;99.90
20442;DHT22;10380;52.102;20.614;2023-07-09T04:50:07;18.30;99.90
20442;DHT22;10380;52.102;20.614;2023-07-09T04:52:34;18.40;99.90
20442;DHT22;10380;52.102;20.614;2023-07-09T04:55:02;18.50;99.90
20442;DHT22;10380;52.102;20.614;2023-07-09T04:57:29;18.50;99.90
20442;DHT22;10380;52.102;20.614;2023-07-09T04:59:56;18.60;99.90
20442;DHT22;10380;52.102;20.614;2023-07-09T05:02:24;18.70;99.90
20442;DHT22;10380;52.102;20.614;2023-07-09T05:04:51;18.80;99.90
20442;DHT22;10380;52.102;20.614;2023-07-09T05:07:18;18.90;99.90
20442;DHT22;10380;52.102;20.614;2023-07-09T05:09:45;19.00;99.90
20442;DHT22;10380;52.102;20.614;2023-07-09T05:12:12;19.00;99.90
20442;DHT22;10380;52.102;20.614;2023-07-09T05:14:39;19.10;99.90
20442;DHT22;10380;52.102;20.614;2023-07-09T05:17:07;19.10;99.90
20442;DHT22;10380;52.102;20.614;2023-07-09T05:19:36;19.20;99.90
20442;DHT22;10380;52.102;20.614;2023-07-09T05:22:03;19.20;99.90
20442;DHT22;10380;52.102;20.614;2023-07-09T05:24:31;19.30;99.90
20442;DHT22;10380;52.102;20.614;2023-07-09T05:26:58;19.30;99.90
20442;DHT22;10380;52.102;20.614;2023-07-09T05:29:25;19.40;99.90
20442;DHT22;10380;52.102;20.614;2023-07-09T05:31:52;19.50;99.90
20442;DHT22;10380;52.102;20.614;2023-07-09T05:34:20;19.50;99.90
20442;DHT22;10380;52.102;20.614;2023-07-09T05:36:48;19.50;99.90
20442;DHT22;10380;52.102;20.614;2023-07-09T05:39:15;19.60;99.90
20442;DHT22;10380;52.102;20.614;2023-07-09T05:41:43;19.70;99.90
20442;DHT22;10380;52.102;20.614;2023-07-09T05:44:10;19.70;99.90
20442;DHT22;10380;52.102;20.614;2023-07-09T05:46:38;19.80;99.90
20442;DHT22;10380;52.102;20.614;2023-07-09T05:49:06;19.80;99.90
20442;DHT22;10380;52.102;20.614;2023-07-09T05:51:33;19.90;99.90
20442;DHT22;10380;52.102;20.614;2023-07-09T05:54:00;19.90;99.90
20442;DHT22;10380;52.102;20.614;2023-07-09T05:56:27;20.00;99.90
20442;DHT22;10380;52.102;20.614;2023-07-09T05:58:55;20.00;99.90
20442;DHT22;10380;52.102;20.614;2023-07-09T06:01:23;20.10;99.90
20442;DHT22;10380;52.102;20.614;2023-07-09T06:03:51;20.20;99.90
20442;DHT22;10380;52.102;20.614;2023-07-09T06:06:18;20.20;99.90
20442;DHT22;10380;52.102;20.614;2023-07-09T06:08:45;20.40;99.90
20442;DHT22;10380;52.102;20.614;2023-07-09T06:11:13;20.50;99.90
20442;DHT22;10380;52.102;20.614;2023-07-09T06:13:40;20.60;99.90
20442;DHT22;10380;52.102;20.614;2023-07-09T06:16:07;20.70;99.90
20442;DHT22;10380;52.102;20.614;2023-07-09T06:18:34;20.80;99.90
20442;DHT22;10380;52.102;20.614;2023-07-09T06:21:02;20.80;99.90
20442;DHT22;10380;52.102;20.614;2023-07-09T06:23:30;20.90;99.90
20442;DHT22;10380;52.102;20.614;2023-07-09T06:25:58;20.90;99.90
20442;DHT22;10380;52.102;20.614;2023-07-09T06:28:27;20.90;99.90
20442;DHT22;10380;52.102;20.614;2023-07-09T06:30:56;20.90;99.90
20442;DHT22;10380;52.102;20.614;2023-07-09T06:33:25;21.00;99.90
20442;DHT22;10380;52.102;20.614;2023-07-09T06:36:00;21.10;99.90
20442;DHT22;10380;52.102;20.614;2023-07-09T06:38:29;21.20;99.90
20442;DHT22;10380;52.102;20.614;2023-07-09T06:40:57;21.30;99.90
20442;DHT22;10380;52.102;20.614;2023-07-09T06:43:24;21.40;99.90
20442;DHT22;10380;52.102;20.614;2023-07-09T06:45:55;21.50;99.90
20442;DHT22;10380;52.102;20.614;2023-07-09T06:48:22;21.50;99.90
20442;DHT22;10380;52.102;20.614;2023-07-09T06:50:49;21.50;99.90
20442;DHT22;10380;52.102;20.614;2023-07-09T06:53:17;21.60;99.90
20442;DHT22;10380;52.102;20.614;2023-07-09T06:55:43;21.60;99.90
20442;DHT22;10380;52.102;20.614;2023-07-09T06:58:10;21.70;99.90
20442;DHT22;10380;52.102;20.614;2023-07-09T07:00:37;21.70;99.90
20442;DHT22;10380;52.102;20.614;2023-07-09T07:03:06;21.80;99.90
20442;DHT22;10380;52.102;20.614;2023-07-09T07:05:33;21.90;99.90
20442;DHT22;10380;52.102;20.614;2023-07-09T07:08:02;21.90;99.90
20442;DHT22;10380;52.102;20.614;2023-07-09T07:10:29;21.90;99.90
20442;DHT22;10380;52.102;20.614;2023-07-09T07:12:56;22.00;99.90
20442;DHT22;10380;52.102;20.614;2023-07-09T07:15:23;22.00;99.90
20442;DHT22;10380;52.102;20.614;2023-07-09T07:17:50;22.10;99.90
20442;DHT22;10380;52.102;20.614;2023-07-09T07:20:18;22.10;99.90
20442;DHT22;10380;52.102;20.614;2023-07-09T07:22:45;22.20;99.90
20442;DHT22;10380;52.102;20.614;2023-07-09T07:25:12;22.20;99.90
20442;DHT22;10380;52.102;20.614;2023-07-09T07:27:39;22.30;99.90
20442;DHT22;10380;52.102;20.614;2023-07-09T07:30:07;22.30;99.90
20442;DHT22;10380;52.102;20.614;2023-07-09T07:32:43;22.40;99.90
20442;DHT22;10380;52.102;20.614;2023-07-09T07:35:11;22.50;99.90
20442;DHT22;10380;52.102;20.614;2023-07-09T07:37:41;22.50;99.90
20442;DHT22;10380;52.102;20.614;2023-07-09T07:40:09;22.60;99.90
20442;DHT22;10380;52.102;20.614;2023-07-09T07:42:36;22.60;99.90
20442;DHT22;10380;52.102;20.614;2023-07-09T07:45:04;22.70;99.90
20442;DHT22;10380;52.102;20.614;2023-07-09T07:47:31;22.70;99.90
20442;DHT22;10380;52.102;20.614;2023-07-09T07:50:00;22.70;99.90
20442;DHT22;10380;52.102;20.614;2023-07-09T07:52:28;22.70;99.90
20442;DHT22;10380;52.102;20.614;2023-07-09T07:54:55;22.80;99.90
20442;DHT22;10380;52.102;20.614;2023-07-09T07:57:24;22.80;99.90
20442;DHT22;10380;52.102;20.614;2023-07-09T07:59:51;22.80;99.90
20442;DHT22;10380;52.102;20.614;2023-07-09T08:02:18;22.80;99.90
20442;DHT22;10380;52.102;20.614;2023-07-09T08:04:44;22.80;99.90
20442;DHT22;10380;52.102;20.614;2023-07-09T08:07:11;22.90;99.90
20442;DHT22;10380;52.102;20.614;2023-07-09T08:09:38;22.90;99.90
20442;DHT22;10380;52.102;20.614;2023-07-09T08:12:06;23.00;99.90
20442;DHT22;10380;52.102;20.614;2023-07-09T08:14:42;23.10;99.90
20442;DHT22;10380;52.102;20.614;2023-07-09T08:17:11;23.10;99.90
20442;DHT22;10380;52.102;20.614;2023-07-09T08:19:45;23.10;99.90
20442;DHT22;10380;52.102;20.614;2023-07-09T08:22:13;23.10;99.90
20442;DHT22;10380;52.102;20.614;2023-07-09T08:24:40;23.10;99.90
20442;DHT22;10380;52.102;20.614;2023-07-09T08:27:08;23.20;99.90
20442;DHT22;10380;52.102;20.614;2023-07-09T08:29:35;23.20;99.90
20442;DHT22;10380;52.102;20.614;2023-07-09T08:32:03;23.20;99.90
20442;DHT22;10380;52.102;20.614;2023-07-09T08:34:30;23.30;99.90
20442;DHT22;10380;52.102;20.614;2023-07-09T08:36:57;23.30;99.90
20442;DHT22;10380;52.102;20.614;2023-07-09T08:39:24;23.40;99.90
20442;DHT22;10380;52.102;20.614;2023-07-09T08:42:06;23.40;99.90
20442;DHT22;10380;52.102;20.614;2023-07-09T08:50:16;23.40;99.90
20442;DHT22;10380;52.102;20.614;2023-07-09T08:52:48;23.40;99.90
20442;DHT22;10380;52.102;20.614;2023-07-09T08:55:20;23.40;99.90
20442;DHT22;10380;52.102;20.614;2023-07-09T08:57:58;23.50;99.90
20442;DHT22;10380;52.102;20.614;2023-07-09T09:00:34;23.50;99.90
20442;DHT22;10380;52.102;20.614;2023-07-09T09:05:43;23.60;99.90
20442;DHT22;10380;52.102;20.614;2023-07-09T09:10:52;23.70;99.90
20442;DHT22;10380;52.102;20.614;2023-07-09T09:13:24;23.80;99.90
20442;DHT22;10380;52.102;20.614;2023-07-09T09:15:52;23.90;99.90
20442;DHT22;10380;52.102;20.614;2023-07-09T09:18:32;23.90;99.90
20442;DHT22;10380;52.102;20.614;2023-07-09T09:23:46;23.90;99.90
20442;DHT22;10380;52.102;20.614;2023-07-09T09:26:30;24.00;99.80
20442;DHT22;10380;52.102;20.614;2023-07-09T09:28:57;24.00;99.10
20442;DHT22;10380;52.102;20.614;2023-07-09T09:31:28;24.10;98.70
20442;DHT22;10380;52.102;20.614;2023-07-09T09:33:56;24.10;98.10
20442;DHT22;10380;52.102;20.614;2023-07-09T09:36:25;24.10;98.40
20442;DHT22;10380;52.102;20.614;2023-07-09T09:38:53;24.20;98.40
20442;DHT22;10380;52.102;20.614;2023-07-09T09:41:22;24.30;98.50
20442;DHT22;10380;52.102;20.614;2023-07-09T09:43:53;24.40;98.30
20442;DHT22;10380;52.102;20.614;2023-07-09T09:46:23;24.40;97.80
20442;DHT22;10380;52.102;20.614;2023-07-09T09:48:54;24.60;97.50
20442;DHT22;10380;52.102;20.614;2023-07-09T09:51:23;24.60;96.70
20442;DHT22;10380;52.102;20.614;2023-07-09T09:53:52;24.60;96.40
20442;DHT22;10380;52.102;20.614;2023-07-09T09:56:42;24.60;96.40
20442;DHT22;10380;52.102;20.614;2023-07-09T09:59:31;24.70;95.90
20442;DHT22;10380;52.102;20.614;2023-07-09T10:02:01;24.70;96.10
20442;DHT22;10380;52.102;20.614;2023-07-09T10:04:29;24.70;96.00
20442;DHT22;10380;52.102;20.614;2023-07-09T10:07:01;24.70;95.70
20442;DHT22;10380;52.102;20.614;2023-07-09T10:09:47;24.70;95.60
20442;DHT22;10380;52.102;20.614;2023-07-09T10:12:31;24.70;96.30
20442;DHT22;10380;52.102;20.614;2023-07-09T10:21:10;24.90;94.20
20442;DHT22;10380;52.102;20.614;2023-07-09T10:24:03;24.90;93.90
20442;DHT22;10380;52.102;20.614;2023-07-09T10:26:40;25.00;94.20
20442;DHT22;10380;52.102;20.614;2023-07-09T10:29:34;25.10;94.40
20442;DHT22;10380;52.102;20.614;2023-07-09T10:40:53;25.30;93.40
20442;DHT22;10380;52.102;20.614;2023-07-09T10:43:44;25.30;93.10
20442;DHT22;10380;52.102;20.614;2023-07-09T10:46:17;25.30;92.70
20442;DHT22;10380;52.102;20.614;2023-07-09T10:48:48;25.30;92.20
20442;DHT22;10380;52.102;20.614;2023-07-09T10:51:29;25.30;91.80
20442;DHT22;10380;52.102;20.614;2023-07-09T10:54:32;25.30;91.30
20442;DHT22;10380;52.102;20.614;2023-07-09T10:57:13;25.40;91.00
20442;DHT22;10380;52.102;20.614;2023-07-09T10:59:41;25.40;90.90
20442;DHT22;10380;52.102;20.614;2023-07-09T11:02:25;25.40;90.70
20442;DHT22;10380;52.102;20.614;2023-07-09T11:05:01;25.50;90.70
20442;DHT22;10380;52.102;20.614;2023-07-09T11:10:17;25.70;90.40
20442;DHT22;10380;52.102;20.614;2023-07-09T11:15:37;25.80;90.00
20442;DHT22;10380;52.102;20.614;2023-07-09T11:18:07;25.90;90.00
20442;DHT22;10380;52.102;20.614;2023-07-09T11:20:42;26.00;89.60
20442;DHT22;10380;52.102;20.614;2023-07-09T11:23:21;26.10;89.60
20442;DHT22;10380;52.102;20.614;2023-07-09T11:26:02;26.20;89.10
20442;DHT22;10380;52.102;20.614;2023-07-09T11:28:37;26.30;88.10
20442;DHT22;10380;52.102;20.614;2023-07-09T11:39:27;26.90;86.30
20442;DHT22;10380;52.102;20.614;2023-07-09T11:41:55;27.00;85.00
20442;DHT22;10380;52.102;20.614;2023-07-09T11:44:28;27.20;83.80
20442;DHT22;10380;52.102;20.614;2023-07-09T11:47:17;27.50;83.40
20442;DHT22;10380;52.102;20.614;2023-07-09T11:49:52;27.90;83.70
20442;DHT22;10380;52.102;20.614;2023-07-09T11:52:49;28.70;82.80
20442;DHT22;10380;52.102;20.614;2023-07-09T11:57:56;30.60;76.50
20442;DHT22;10380;52.102;20.614;2023-07-09T12:00:27;31.10;74.70
20442;DHT22;10380;52.102;20.614;2023-07-09T12:02:56;31.60;72.90
20442;DHT22;10380;52.102;20.614;2023-07-09T12:05:29;32.00;71.30
20442;DHT22;10380;52.102;20.614;2023-07-09T12:07:58;32.80;69.60
20442;DHT22;10380;52.102;20.614;2023-07-09T12:10:31;33.70;67.30
20442;DHT22;10380;52.102;20.614;2023-07-09T12:13:00;34.60;65.00
20442;DHT22;10380;52.102;20.614;2023-07-09T12:15:28;35.30;62.50
20442;DHT22;10380;52.102;20.614;2023-07-09T12:18:01;36.00;59.70
20442;DHT22;10380;52.102;20.614;2023-07-09T12:20:31;36.30;57.40
20442;DHT22;10380;52.102;20.614;2023-07-09T12:23:09;36.80;56.70
20442;DHT22;10380;52.102;20.614;2023-07-09T12:25:36;37.50;55.60
20442;DHT22;10380;52.102;20.614;2023-07-09T12:28:03;38.10;53.80
20442;DHT22;10380;52.102;20.614;2023-07-09T12:30:33;38.50;52.40
20442;DHT22;10380;52.102;20.614;2023-07-09T12:33:00;38.60;50.70
20442;DHT22;10380;52.102;20.614;2023-07-09T12:35:34;38.40;49.60
20442;DHT22;10380;52.102;20.614;2023-07-09T12:38:01;38.40;49.60
20442;DHT22;10380;52.102;20.614;2023-07-09T12:40:29;38.70;49.30
20442;DHT22;10380;52.102;20.614;2023-07-09T12:42:57;38.60;48.20
20442;DHT22;10380;52.102;20.614;2023-07-09T12:45:24;38.60;47.90
20442;DHT22;10380;52.102;20.614;2023-07-09T12:47:51;38.50;47.30
20442;DHT22;10380;52.102;20.614;2023-07-09T12:50:30;38.40;46.70
20442;DHT22;10380;52.102;20.614;2023-07-09T12:53:17;38.50;46.30
20442;DHT22;10380;52.102;20.614;2023-07-09T12:55:46;38.30;46.00
20442;DHT22;10380;52.102;20.614;2023-07-09T12:58:27;38.30;46.20
20442;DHT22;10380;52.102;20.614;2023-07-09T13:00:55;38.40;45.80
20442;DHT22;10380;52.102;20.614;2023-07-09T13:03:28;38.30;45.50
20442;DHT22;10380;52.102;20.614;2023-07-09T13:05:59;38.20;45.40
20442;DHT22;10380;52.102;20.614;2023-07-09T13:08:28;38.00;45.40
20442;DHT22;10380;52.102;20.614;2023-07-09T13:10:56;37.70;45.30
20442;DHT22;10380;52.102;20.614;2023-07-09T13:13:24;37.10;45.70
20442;DHT22;10380;52.102;20.614;2023-07-09T13:16:00;36.60;46.50
20442;DHT22;10380;52.102;20.614;2023-07-09T13:18:28;36.00;47.00
20442;DHT22;10380;52.102;20.614;2023-07-09T13:20:55;35.60;46.80
20442;DHT22;10380;52.102;20.614;2023-07-09T13:23:28;35.10;47.20
20442;DHT22;10380;52.102;20.614;2023-07-09T13:25:56;34.70;47.80
20442;DHT22;10380;52.102;20.614;2023-07-09T13:28:28;34.40;49.00
20442;DHT22;10380;52.102;20.614;2023-07-09T13:31:07;34.30;48.60
20442;DHT22;10380;52.102;20.614;2023-07-09T13:33:36;34.10;49.10
20442;DHT22;10380;52.102;20.614;2023-07-09T13:36:04;34.00;49.30
20442;DHT22;10380;52.102;20.614;2023-07-09T13:38:31;34.00;50.00
20442;DHT22;10380;52.102;20.614;2023-07-09T13:41:01;34.30;49.20
20442;DHT22;10380;52.102;20.614;2023-07-09T13:43:36;34.60;48.40
20442;DHT22;10380;52.102;20.614;2023-07-09T13:46:05;34.80;48.20
20442;DHT22;10380;52.102;20.614;2023-07-09T13:48:34;35.40;48.30
20442;DHT22;10380;52.102;20.614;2023-07-09T13:51:12;35.60;47.60
20442;DHT22;10380;52.102;20.614;2023-07-09T13:53:39;35.80;47.00
20442;DHT22;10380;52.102;20.614;2023-07-09T13:56:06;35.50;46.70
20442;DHT22;10380;52.102;20.614;2023-07-09T13:58:33;35.30;47.60
20442;DHT22;10380;52.102;20.614;2023-07-09T14:01:09;35.20;47.80
20442;DHT22;10380;52.102;20.614;2023-07-09T14:03:37;35.30;47.60
20442;DHT22;10380;52.102;20.614;2023-07-09T14:06:04;35.60;47.70
20442;DHT22;10380;52.102;20.614;2023-07-09T14:08:31;35.60;47.20
20442;DHT22;10380;52.102;20.614;2023-07-09T14:10:58;35.70;46.90
20442;DHT22;10380;52.102;20.614;2023-07-09T14:13:24;35.80;47.00
20442;DHT22;10380;52.102;20.614;2023-07-09T14:15:52;36.10;46.90
20442;DHT22;10380;52.102;20.614;2023-07-09T14:18:21;36.30;46.50
20442;DHT22;10380;52.102;20.614;2023-07-09T14:20:50;36.50;46.30
20442;DHT22;10380;52.102;20.614;2023-07-09T14:23:18;36.70;45.70
20442;DHT22;10380;52.102;20.614;2023-07-09T14:25:46;36.70;45.20
20442;DHT22;10380;52.102;20.614;2023-07-09T14:28:19;36.60;45.40
20442;DHT22;10380;52.102;20.614;2023-07-09T14:30:49;36.50;45.50
20442;DHT22;10380;52.102;20.614;2023-07-09T14:33:19;36.50;45.50
20442;DHT22;10380;52.102;20.614;2023-07-09T14:35:47;36.50;45.40
20442;DHT22;10380;52.102;20.614;2023-07-09T14:38:20;36.60;45.80
20442;DHT22;10380;52.102;20.614;2023-07-09T14:40:49;36.40;45.80
20442;DHT22;10380;52.102;20.614;2023-07-09T14:43:16;36.20;46.20
20442;DHT22;10380;52.102;20.614;2023-07-09T14:45:43;36.10;46.50
20442;DHT22;10380;52.102;20.614;2023-07-09T14:48:15;35.90;46.90
20442;DHT22;10380;52.102;20.614;2023-07-09T14:50:43;35.50;46.40
20442;DHT22;10380;52.102;20.614;2023-07-09T14:53:20;35.00;47.50
20442;DHT22;10380;52.102;20.614;2023-07-09T14:55:48;34.50;47.20
20442;DHT22;10380;52.102;20.614;2023-07-09T14:58:18;34.30;48.00
20442;DHT22;10380;52.102;20.614;2023-07-09T15:00:46;34.00;48.40
20442;DHT22;10380;52.102;20.614;2023-07-09T15:03:24;33.80;48.50
20442;DHT22;10380;52.102;20.614;2023-07-09T15:05:52;33.50;48.40
20442;DHT22;10380;52.102;20.614;2023-07-09T15:08:23;33.20;48.50
20442;DHT22;10380;52.102;20.614;2023-07-09T15:10:51;33.00;48.80
20442;DHT22;10380;52.102;20.614;2023-07-09T15:13:33;32.90;49.00
20442;DHT22;10380;52.102;20.614;2023-07-09T15:16:02;32.90;49.30
20442;DHT22;10380;52.102;20.614;2023-07-09T15:18:30;32.80;49.00
20442;DHT22;10380;52.102;20.614;2023-07-09T15:21:01;32.70;49.10
20442;DHT22;10380;52.102;20.614;2023-07-09T15:23:30;32.60;50.10
20442;DHT22;10380;52.102;20.614;2023-07-09T15:25:57;32.70;50.30
20442;DHT22;10380;52.102;20.614;2023-07-09T15:28:24;32.60;49.80
20442;DHT22;10380;52.102;20.614;2023-07-09T15:30:51;32.40;50.50
20442;DHT22;10380;52.102;20.614;2023-07-09T15:33:19;32.20;50.10
20442;DHT22;10380;52.102;20.614;2023-07-09T15:35:48;32.00;50.20
20442;DHT22;10380;52.102;20.614;2023-07-09T15:38:31;32.00;50.60
20442;DHT22;10380;52.102;20.614;2023-07-09T15:40:58;31.90;50.40
20442;DHT22;10380;52.102;20.614;2023-07-09T15:43:25;31.90;50.40
20442;DHT22;10380;52.102;20.614;2023-07-09T15:45:55;31.80;50.50
20442;DHT22;10380;52.102;20.614;2023-07-09T15:48:36;31.70;50.50
20442;DHT22;10380;52.102;20.614;2023-07-09T15:51:04;31.60;50.70
20442;DHT22;10380;52.102;20.614;2023-07-09T15:53:32;31.50;50.70
20442;DHT22;10380;52.102;20.614;2023-07-09T15:58:42;31.30;51.10
20442;DHT22;10380;52.102;20.614;2023-07-09T16:01:11;31.30;51.30
20442;DHT22;10380;52.102;20.614;2023-07-09T16:03:39;31.30;51.30
20442;DHT22;10380;52.102;20.614;2023-07-09T16:06:06;31.40;51.20
20442;DHT22;10380;52.102;20.614;2023-07-09T16:08:32;31.50;51.10
20442;DHT22;10380;52.102;20.614;2023-07-09T16:11:00;31.50;51.00
20442;DHT22;10380;52.102;20.614;2023-07-09T16:13:27;31.50;51.00
20442;DHT22;10380;52.102;20.614;2023-07-09T16:15:54;31.50;51.20
20442;DHT22;10380;52.102;20.614;2023-07-09T16:18:21;31.40;50.90
20442;DHT22;10380;52.102;20.614;2023-07-09T16:20:48;31.40;50.90
20442;DHT22;10380;52.102;20.614;2023-07-09T16:23:21;31.40;50.90
20442;DHT22;10380;52.102;20.614;2023-07-09T16:25:50;31.40;51.40